sensor_id;sensor_type;location;lat;lon;timestamp;P1;durP1;ratioP1;P2;durP2;ratioP2
42104;SDS011;68365;51.472;5.712;2023-05-10T00:01:51;6.32;;;2.40;;
42104;SDS011;68365;51.472;5.712;2023-05-10T00:04:17;4.28;;;2.10;;
42104;SDS011;68365;51.472;5.712;2023-05-10T00:06:42;6.55;;;2.65;;
42104;SDS011;68365;51.472;5.712;2023-05-10T00:09:08;5.88;;;2.17;;
42104;SDS011;68365;51.472;5.712;2023-05-10T00:11:34;4.10;;;2.30;;
42104;SDS011;68365;51.472;5.712;2023-05-10T00:14:00;4.20;;;2.00;;
42104;SDS011;68365;51.472;5.712;2023-05-10T00:16:26;4.93;;;2.28;;
42104;SDS011;68365;51.472;5.712;2023-05-10T00:18:52;4.45;;;2.28;;
42104;SDS011;68365;51.472;5.712;2023-05-10T00:21:17;4.55;;;2.20;;
42104;SDS011;68365;51.472;5.712;2023-05-10T00:23:43;4.70;;;2.05;;
42104;SDS011;68365;51.472;5.712;2023-05-10T00:26:09;4.82;;;2.10;;
42104;SDS011;68365;51.472;5.712;2023-05-10T00:28:35;5.18;;;2.08;;
42104;SDS011;68365;51.472;5.712;2023-05-10T00:31:01;4.38;;;1.98;;
42104;SDS011;68365;51.472;5.712;2023-05-10T00:33:26;4.05;;;2.25;;
42104;SDS011;68365;51.472;5.712;2023-05-10T00:35:52;6.18;;;2.15;;
42104;SDS011;68365;51.472;5.712;2023-05-10T00:38:18;3.33;;;1.98;;
42104;SDS011;68365;51.472;5.712;2023-05-10T00:40:44;4.38;;;2.10;;
42104;SDS011;68365;51.472;5.712;2023-05-10T00:43:10;5.00;;;2.42;;
42104;SDS011;68365;51.472;5.712;2023-05-10T00:45:36;4.35;;;2.25;;
42104;SDS011;68365;51.472;5.712;2023-05-10T00:48:02;3.83;;;1.92;;
42104;SDS011;68365;51.472;5.712;2023-05-10T00:50:28;4.50;;;1.88;;
42104;SDS011;68365;51.472;5.712;2023-05-10T00:52:57;5.82;;;2.22;;
42104;SDS011;68365;51.472;5.712;2023-05-10T00:55:25;4.40;;;2.25;;
42104;SDS011;68365;51.472;5.712;2023-05-10T00:57:52;3.70;;;2.10;;
42104;SDS011;68365;51.472;5.712;2023-05-10T01:00:18;5.72;;;2.15;;
42104;SDS011;68365;51.472;5.712;2023-05-10T01:02:45;4.88;;;1.90;;
42104;SDS011;68365;51.472;5.712;2023-05-10T01:05:11;7.43;;;2.72;;
42104;SDS011;68365;51.472;5.712;2023-05-10T01:07:38;3.15;;;2.25;;
42104;SDS011;68365;51.472;5.712;2023-05-10T01:10:05;4.65;;;2.05;;
42104;SDS011;68365;51.472;5.712;2023-05-10T01:12:32;3.90;;;2.25;;
42104;SDS011;68365;51.472;5.712;2023-05-10T01:15:02;6.40;;;2.17;;
42104;SDS011;68365;51.472;5.712;2023-05-10T01:17:28;4.00;;;2.33;;
42104;SDS011;68365;51.472;5.712;2023-05-10T01:19:55;3.85;;;2.10;;
42104;SDS011;68365;51.472;5.712;2023-05-10T01:33:17;3.38;;;2.15;;
42104;SDS011;68365;51.472;5.712;2023-05-10T01:36:16;4.50;;;2.00;;
42104;SDS011;68365;51.472;5.712;2023-05-10T01:39:01;3.67;;;2.08;;
42104;SDS011;68365;51.472;5.712;2023-05-10T01:41:48;3.38;;;2.17;;
42104;SDS011;68365;51.472;5.712;2023-05-10T01:44:24;4.03;;;2.20;;
42104;SDS011;68365;51.472;5.712;2023-05-10T01:47:15;3.95;;;2.38;;
42104;SDS011;68365;51.472;5.712;2023-05-10T01:49:52;3.58;;;2.05;;
42104;SDS011;68365;51.472;5.712;2023-05-10T01:52:23;4.30;;;2.35;;
42104;SDS011;68365;51.472;5.712;2023-05-10T01:55:01;2.85;;;2.00;;
42104;SDS011;68365;51.472;5.712;2023-05-10T01:57:32;6.03;;;2.00;;
42104;SDS011;68365;51.472;5.712;2023-05-10T02:00:01;3.88;;;1.83;;
42104;SDS011;68365;51.472;5.712;2023-05-10T02:02:30;4.25;;;2.10;;
42104;SDS011;68365;51.472;5.712;2023-05-10T02:05:04;4.32;;;2.30;;
42104;SDS011;68365;51.472;5.712;2023-05-10T02:07:33;5.70;;;2.47;;
42104;SDS011;68365;51.472;5.712;2023-05-10T02:10:04;4.57;;;2.28;;
42104;SDS011;68365;51.472;5.712;2023-05-10T02:12:36;3.75;;;2.35;;
42104;SDS011;68365;51.472;5.712;2023-05-10T02:15:06;4.68;;;1.88;;
42104;SDS011;68365;51.472;5.712;2023-05-10T02:17:34;3.17;;;1.92;;
42104;SDS011;68365;51.472;5.712;2023-05-10T02:20:02;2.83;;;2.08;;
42104;SDS011;68365;51.472;5.712;2023-05-10T02:22:30;3.58;;;2.22;;
42104;SDS011;68365;51.472;5.712;2023-05-10T02:24:57;3.00;;;2.15;;
42104;SDS011;68365;51.472;5.712;2023-05-10T02:27:25;3.78;;;2.28;;
42104;SDS011;68365;51.472;5.712;2023-05-10T02:29:54;5.95;;;2.08;;
42104;SDS011;68365;51.472;5.712;2023-05-10T02:32:21;2.72;;;2.13;;
42104;SDS011;68365;51.472;5.712;2023-05-10T02:34:49;4.15;;;2.17;;
42104;SDS011;68365;51.472;5.712;2023-05-10T02:37:17;4.80;;;2.10;;
42104;SDS011;68365;51.472;5.712;2023-05-10T02:39:46;4.72;;;2.33;;
42104;SDS011;68365;51.472;5.712;2023-05-10T02:42:17;5.55;;;2.20;;
42104;SDS011;68365;51.472;5.712;2023-05-10T02:44:48;3.28;;;2.30;;
42104;SDS011;68365;51.472;5.712;2023-05-10T02:47:17;3.47;;;2.45;;
42104;SDS011;68365;51.472;5.712;2023-05-10T02:49:44;4.20;;;2.38;;
42104;SDS011;68365;51.472;5.712;2023-05-10T02:52:10;2.95;;;2.30;;
42104;SDS011;68365;51.472;5.712;2023-05-10T02:54:43;3.88;;;2.53;;
42104;SDS011;68365;51.472;5.712;2023-05-10T02:57:16;6.15;;;2.53;;
42104;SDS011;68365;51.472;5.712;2023-05-10T02:59:45;4.10;;;2.60;;
42104;SDS011;68365;51.472;5.712;2023-05-10T03:02:14;3.10;;;2.20;;
42104;SDS011;68365;51.472;5.712;2023-05-10T03:04:40;4.68;;;2.80;;
42104;SDS011;68365;51.472;5.712;2023-05-10T03:07:06;4.90;;;2.80;;
42104;SDS011;68365;51.472;5.712;2023-05-10T03:09:33;3.95;;;2.50;;
42104;SDS011;68365;51.472;5.712;2023-05-10T03:18:08;5.05;;;2.47;;
42104;SDS011;68365;51.472;5.712;2023-05-10T03:20:52;4.38;;;2.60;;
42104;SDS011;68365;51.472;5.712;2023-05-10T03:23:27;4.03;;;3.15;;
42104;SDS011;68365;51.472;5.712;2023-05-10T03:26:07;5.38;;;3.08;;
42104;SDS011;68365;51.472;5.712;2023-05-10T03:28:36;5.05;;;3.20;;
42104;SDS011;68365;51.472;5.712;2023-05-10T03:31:04;5.10;;;3.10;;
42104;SDS011;68365;51.472;5.712;2023-05-10T03:33:31;3.42;;;2.92;;
42104;SDS011;68365;51.472;5.712;2023-05-10T03:35:57;4.32;;;2.88;;
42104;SDS011;68365;51.472;5.712;2023-05-10T03:38:23;4.85;;;3.13;;
42104;SDS011;68365;51.472;5.712;2023-05-10T03:40:49;4.20;;;2.95;;
42104;SDS011;68365;51.472;5.712;2023-05-10T03:43:14;4.00;;;3.00;;
42104;SDS011;68365;51.472;5.712;2023-05-10T03:45:40;5.07;;;3.03;;
42104;SDS011;68365;51.472;5.712;2023-05-10T03:48:06;4.22;;;3.08;;
42104;SDS011;68365;51.472;5.712;2023-05-10T03:50:32;4.60;;;3.30;;
42104;SDS011;68365;51.472;5.712;2023-05-10T03:52:58;3.47;;;2.58;;
42104;SDS011;68365;51.472;5.712;2023-05-10T03:55:23;3.72;;;3.08;;
42104;SDS011;68365;51.472;5.712;2023-05-10T03:57:49;3.42;;;2.92;;
42104;SDS011;68365;51.472;5.712;2023-05-10T04:00:15;3.85;;;2.85;;
42104;SDS011;68365;51.472;5.712;2023-05-10T04:02:41;4.35;;;2.95;;
42104;SDS011;68365;51.472;5.712;2023-05-10T04:05:07;3.67;;;3.05;;
42104;SDS011;68365;51.472;5.712;2023-05-10T04:07:33;4.13;;;2.83;;
42104;SDS011;68365;51.472;5.712;2023-05-10T04:09:59;5.32;;;3.20;;
42104;SDS011;68365;51.472;5.712;2023-05-10T04:12:25;6.55;;;3.25;;
42104;SDS011;68365;51.472;5.712;2023-05-10T04:14:51;4.95;;;3.40;;
42104;SDS011;68365;51.472;5.712;2023-05-10T04:17:16;4.90;;;3.45;;
42104;SDS011;68365;51.472;5.712;2023-05-10T04:19:42;4.03;;;3.22;;
42104;SDS011;68365;51.472;5.712;2023-05-10T04:22:08;5.95;;;3.40;;
42104;SDS011;68365;51.472;5.712;2023-05-10T04:24:34;4.50;;;3.22;;
42104;SDS011;68365;51.472;5.712;2023-05-10T04:26:59;4.03;;;3.28;;
42104;SDS011;68365;51.472;5.712;2023-05-10T04:29:25;5.60;;;3.58;;
42104;SDS011;68365;51.472;5.712;2023-05-10T04:31:52;4.45;;;3.42;;
42104;SDS011;68365;51.472;5.712;2023-05-10T04:34:19;5.03;;;3.55;;
42104;SDS011;68365;51.472;5.712;2023-05-10T04:36:46;4.07;;;3.20;;
42104;SDS011;68365;51.472;5.712;2023-05-10T04:39:11;6.18;;;3.60;;
42104;SDS011;68365;51.472;5.712;2023-05-10T04:41:38;5.53;;;3.63;;
42104;SDS011;68365;51.472;5.712;2023-05-10T04:44:04;4.43;;;3.60;;
42104;SDS011;68365;51.472;5.712;2023-05-10T04:46:30;4.25;;;3.35;;
42104;SDS011;68365;51.472;5.712;2023-05-10T04:48:56;4.35;;;3.30;;
42104;SDS011;68365;51.472;5.712;2023-05-10T04:51:21;4.82;;;3.65;;
42104;SDS011;68365;51.472;5.712;2023-05-10T04:53:47;4.07;;;3.55;;
42104;SDS011;68365;51.472;5.712;2023-05-10T04:56:13;5.82;;;3.58;;
42104;SDS011;68365;51.472;5.712;2023-05-10T04:58:39;5.10;;;3.50;;
42104;SDS011;68365;51.472;5.712;2023-05-10T05:01:05;4.20;;;3.58;;
42104;SDS011;68365;51.472;5.712;2023-05-10T05:03:32;5.40;;;3.80;;
42104;SDS011;68365;51.472;5.712;2023-05-10T05:05:58;6.57;;;4.22;;
42104;SDS011;68365;51.472;5.712;2023-05-10T05:08:24;8.77;;;3.72;;
42104;SDS011;68365;51.472;5.712;2023-05-10T05:10:50;6.18;;;3.95;;
42104;SDS011;68365;51.472;5.712;2023-05-10T05:13:16;7.38;;;3.90;;
42104;SDS011;68365;51.472;5.712;2023-05-10T05:15:42;7.38;;;4.47;;
42104;SDS011;68365;51.472;5.712;2023-05-10T05:18:08;7.72;;;4.30;;
42104;SDS011;68365;51.472;5.712;2023-05-10T05:20:33;5.72;;;3.90;;
42104;SDS011;68365;51.472;5.712;2023-05-10T05:22:59;9.93;;;4.53;;
42104;SDS011;68365;51.472;5.712;2023-05-10T05:25:26;7.30;;;4.32;;
42104;SDS011;68365;51.472;5.712;2023-05-10T05:27:51;8.45;;;4.13;;
42104;SDS011;68365;51.472;5.712;2023-05-10T05:30:17;6.80;;;4.53;;
42104;SDS011;68365;51.472;5.712;2023-05-10T05:32:43;9.73;;;4.78;;
42104;SDS011;68365;51.472;5.712;2023-05-10T05:35:09;11.35;;;4.40;;
42104;SDS011;68365;51.472;5.712;2023-05-10T05:37:35;6.45;;;4.45;;
42104;SDS011;68365;51.472;5.712;2023-05-10T05:40:02;6.65;;;4.65;;
42104;SDS011;68365;51.472;5.712;2023-05-10T05:42:28;9.75;;;5.25;;
42104;SDS011;68365;51.472;5.712;2023-05-10T05:44:55;7.82;;;4.95;;
42104;SDS011;68365;51.472;5.712;2023-05-10T05:47:21;7.07;;;4.85;;
42104;SDS011;68365;51.472;5.712;2023-05-10T05:49:47;7.18;;;4.70;;
42104;SDS011;68365;51.472;5.712;2023-05-10T05:52:13;6.55;;;4.70;;
42104;SDS011;68365;51.472;5.712;2023-05-10T05:54:39;8.23;;;4.93;;
42104;SDS011;68365;51.472;5.712;2023-05-10T05:57:05;8.30;;;4.78;;
42104;SDS011;68365;51.472;5.712;2023-05-10T05:59:30;10.15;;;5.40;;
42104;SDS011;68365;51.472;5.712;2023-05-10T06:01:56;8.45;;;5.50;;
42104;SDS011;68365;51.472;5.712;2023-05-10T06:04:22;7.43;;;5.25;;
42104;SDS011;68365;51.472;5.712;2023-05-10T06:06:48;22.70;;;14.45;;
42104;SDS011;68365;51.472;5.712;2023-05-10T06:09:14;31.30;;;18.98;;
42104;SDS011;68365;51.472;5.712;2023-05-10T06:11:40;33.30;;;20.67;;
42104;SDS011;68365;51.472;5.712;2023-05-10T06:14:06;33.72;;;22.60;;
42104;SDS011;68365;51.472;5.712;2023-05-10T06:16:33;37.78;;;23.55;;
42104;SDS011;68365;51.472;5.712;2023-05-10T06:18:59;40.30;;;23.90;;
42104;SDS011;68365;51.472;5.712;2023-05-10T06:21:25;39.97;;;24.17;;
42104;SDS011;68365;51.472;5.712;2023-05-10T06:23:51;38.05;;;23.40;;
42104;SDS011;68365;51.472;5.712;2023-05-10T06:26:17;33.08;;;22.70;;
42104;SDS011;68365;51.472;5.712;2023-05-10T06:28:43;35.60;;;22.90;;
42104;SDS011;68365;51.472;5.712;2023-05-10T06:31:09;32.03;;;21.90;;
42104;SDS011;68365;51.472;5.712;2023-05-10T06:33:36;31.02;;;20.67;;
42104;SDS011;68365;51.472;5.712;2023-05-10T06:36:02;29.98;;;20.33;;
42104;SDS011;68365;51.472;5.712;2023-05-10T06:38:28;28.33;;;20.40;;
42104;SDS011;68365;51.472;5.712;2023-05-10T06:40:54;28.70;;;19.65;;
42104;SDS011;68365;51.472;5.712;2023-05-10T06:43:20;31.88;;;19.10;;
42104;SDS011;68365;51.472;5.712;2023-05-10T06:45:47;30.25;;;18.27;;
42104;SDS011;68365;51.472;5.712;2023-05-10T06:48:13;32.47;;;20.05;;
42104;SDS011;68365;51.472;5.712;2023-05-10T06:50:39;27.55;;;19.10;;
42104;SDS011;68365;51.472;5.712;2023-05-10T06:53:05;26.80;;;18.65;;
42104;SDS011;68365;51.472;5.712;2023-05-10T06:55:30;30.63;;;19.58;;
42104;SDS011;68365;51.472;5.712;2023-05-10T06:57:56;28.08;;;18.10;;
42104;SDS011;68365;51.472;5.712;2023-05-10T07:00:22;27.65;;;19.30;;
42104;SDS011;68365;51.472;5.712;2023-05-10T07:02:48;26.42;;;18.17;;
42104;SDS011;68365;51.472;5.712;2023-05-10T07:05:14;27.30;;;17.90;;
42104;SDS011;68365;51.472;5.712;2023-05-10T07:07:40;30.95;;;19.25;;
42104;SDS011;68365;51.472;5.712;2023-05-10T07:10:06;27.80;;;18.35;;
42104;SDS011;68365;51.472;5.712;2023-05-10T07:12:32;27.10;;;18.15;;
42104;SDS011;68365;51.472;5.712;2023-05-10T07:14:58;28.50;;;18.15;;
42104;SDS011;68365;51.472;5.712;2023-05-10T07:17:24;26.77;;;18.00;;
42104;SDS011;68365;51.472;5.712;2023-05-10T07:19:50;28.25;;;19.85;;
42104;SDS011;68365;51.472;5.712;2023-05-10T07:22:16;29.45;;;19.73;;
42104;SDS011;68365;51.472;5.712;2023-05-10T07:24:42;28.00;;;18.48;;
42104;SDS011;68365;51.472;5.712;2023-05-10T07:27:08;28.83;;;18.52;;
42104;SDS011;68365;51.472;5.712;2023-05-10T07:29:34;28.00;;;18.95;;
42104;SDS011;68365;51.472;5.712;2023-05-10T07:32:01;27.58;;;19.13;;
42104;SDS011;68365;51.472;5.712;2023-05-10T07:34:27;27.48;;;18.73;;
42104;SDS011;68365;51.472;5.712;2023-05-10T07:36:55;31.13;;;19.70;;
42104;SDS011;68365;51.472;5.712;2023-05-10T07:39:25;30.05;;;19.02;;
42104;SDS011;68365;51.472;5.712;2023-05-10T07:41:52;29.20;;;19.85;;
42104;SDS011;68365;51.472;5.712;2023-05-10T07:44:18;27.50;;;19.25;;
42104;SDS011;68365;51.472;5.712;2023-05-10T07:46:45;27.55;;;19.95;;
42104;SDS011;68365;51.472;5.712;2023-05-10T07:49:12;31.42;;;20.45;;
42104;SDS011;68365;51.472;5.712;2023-05-10T07:51:37;27.30;;;19.42;;
42104;SDS011;68365;51.472;5.712;2023-05-10T07:54:04;25.58;;;19.40;;
42104;SDS011;68365;51.472;5.712;2023-05-10T07:56:30;29.92;;;20.00;;
42104;SDS011;68365;51.472;5.712;2023-05-10T07:59:00;30.20;;;20.27;;
42104;SDS011;68365;51.472;5.712;2023-05-10T08:01:32;29.45;;;20.48;;
42104;SDS011;68365;51.472;5.712;2023-05-10T08:03:59;32.90;;;20.80;;
42104;SDS011;68365;51.472;5.712;2023-05-10T08:06:26;31.08;;;20.55;;
42104;SDS011;68365;51.472;5.712;2023-05-10T08:08:54;29.85;;;20.92;;
42104;SDS011;68365;51.472;5.712;2023-05-10T08:11:20;28.23;;;20.05;;
42104;SDS011;68365;51.472;5.712;2023-05-10T08:13:47;29.25;;;20.05;;
42104;SDS011;68365;51.472;5.712;2023-05-10T08:16:14;28.23;;;20.02;;
42104;SDS011;68365;51.472;5.712;2023-05-10T08:18:44;32.95;;;19.23;;
42104;SDS011;68365;51.472;5.712;2023-05-10T08:21:11;29.25;;;19.48;;
42104;SDS011;68365;51.472;5.712;2023-05-10T08:23:38;28.00;;;18.10;;
42104;SDS011;68365;51.472;5.712;2023-05-10T08:26:05;29.30;;;17.55;;
42104;SDS011;68365;51.472;5.712;2023-05-10T08:28:35;26.50;;;17.92;;
42104;SDS011;68365;51.472;5.712;2023-05-10T08:31:01;30.45;;;17.85;;
42104;SDS011;68365;51.472;5.712;2023-05-10T08:33:27;23.58;;;16.90;;
42104;SDS011;68365;51.472;5.712;2023-05-10T08:35:53;24.48;;;15.63;;
42104;SDS011;68365;51.472;5.712;2023-05-10T08:38:18;19.95;;;14.57;;
42104;SDS011;68365;51.472;5.712;2023-05-10T08:40:44;20.52;;;14.25;;
42104;SDS011;68365;51.472;5.712;2023-05-10T08:43:13;21.85;;;14.13;;
42104;SDS011;68365;51.472;5.712;2023-05-10T08:45:41;20.38;;;13.18;;
42104;SDS011;68365;51.472;5.712;2023-05-10T08:48:09;18.48;;;12.57;;
42104;SDS011;68365;51.472;5.712;2023-05-10T08:50:36;18.73;;;11.77;;
42104;SDS011;68365;51.472;5.712;2023-05-10T08:53:11;16.65;;;11.07;;
42104;SDS011;68365;51.472;5.712;2023-05-10T08:55:38;17.57;;;11.20;;
42104;SDS011;68365;51.472;5.712;2023-05-10T08:58:07;17.30;;;10.32;;
42104;SDS011;68365;51.472;5.712;2023-05-10T09:00:34;15.55;;;9.95;;
42104;SDS011;68365;51.472;5.712;2023-05-10T09:03:02;13.13;;;9.43;;
42104;SDS011;68365;51.472;5.712;2023-05-10T09:05:29;15.25;;;9.15;;
42104;SDS011;68365;51.472;5.712;2023-05-10T09:07:55;12.98;;;8.75;;
42104;SDS011;68365;51.472;5.712;2023-05-10T09:10:21;14.77;;;8.20;;
42104;SDS011;68365;51.472;5.712;2023-05-10T09:12:51;13.20;;;7.95;;
42104;SDS011;68365;51.472;5.712;2023-05-10T09:15:18;14.02;;;7.90;;
42104;SDS011;68365;51.472;5.712;2023-05-10T09:17:45;12.88;;;7.18;;
42104;SDS011;68365;51.472;5.712;2023-05-10T09:20:12;14.55;;;7.60;;
42104;SDS011;68365;51.472;5.712;2023-05-10T09:22:38;11.25;;;7.00;;
42104;SDS011;68365;51.472;5.712;2023-05-10T09:25:12;9.98;;;7.05;;
42104;SDS011;68365;51.472;5.712;2023-05-10T09:27:45;13.45;;;7.30;;
42104;SDS011;68365;51.472;5.712;2023-05-10T09:30:16;11.50;;;6.70;;
42104;SDS011;68365;51.472;5.712;2023-05-10T09:32:53;13.63;;;6.57;;
42104;SDS011;68365;51.472;5.712;2023-05-10T09:35:27;8.98;;;6.00;;
42104;SDS011;68365;51.472;5.712;2023-05-10T09:37:59;10.80;;;6.10;;
42104;SDS011;68365;51.472;5.712;2023-05-10T09:40:30;13.43;;;6.90;;
42104;SDS011;68365;51.472;5.712;2023-05-10T09:43:00;9.10;;;5.72;;
42104;SDS011;68365;51.472;5.712;2023-05-10T09:45:32;9.98;;;6.10;;
42104;SDS011;68365;51.472;5.712;2023-05-10T09:48:46;8.70;;;5.95;;
42104;SDS011;68365;51.472;5.712;2023-05-10T09:51:25;9.38;;;5.72;;
42104;SDS011;68365;51.472;5.712;2023-05-10T09:54:11;13.45;;;7.10;;
42104;SDS011;68365;51.472;5.712;2023-05-10T09:56:39;10.90;;;6.28;;
42104;SDS011;68365;51.472;5.712;2023-05-10T09:59:07;10.75;;;5.65;;
42104;SDS011;68365;51.472;5.712;2023-05-10T10:01:37;7.25;;;4.85;;
42104;SDS011;68365;51.472;5.712;2023-05-10T10:04:04;8.68;;;4.90;;
42104;SDS011;68365;51.472;5.712;2023-05-10T10:06:36;7.57;;;4.50;;
42104;SDS011;68365;51.472;5.712;2023-05-10T10:09:03;6.90;;;4.80;;
42104;SDS011;68365;51.472;5.712;2023-05-10T10:11:31;10.15;;;4.70;;
42104;SDS011;68365;51.472;5.712;2023-05-10T10:13:58;8.93;;;4.60;;
42104;SDS011;68365;51.472;5.712;2023-05-10T10:16:26;9.57;;;4.22;;
42104;SDS011;68365;51.472;5.712;2023-05-10T10:18:54;7.78;;;4.40;;
42104;SDS011;68365;51.472;5.712;2023-05-10T10:21:21;8.93;;;4.60;;
42104;SDS011;68365;51.472;5.712;2023-05-10T10:23:48;6.47;;;4.05;;
42104;SDS011;68365;51.472;5.712;2023-05-10T10:26:15;9.00;;;4.15;;
42104;SDS011;68365;51.472;5.712;2023-05-10T10:34:28;8.52;;;3.97;;
42104;SDS011;68365;51.472;5.712;2023-05-10T10:36:55;6.10;;;3.58;;
42104;SDS011;68365;51.472;5.712;2023-05-10T10:39:22;10.05;;;4.43;;
42104;SDS011;68365;51.472;5.712;2023-05-10T10:41:53;10.73;;;4.65;;
42104;SDS011;68365;51.472;5.712;2023-05-10T10:44:25;7.70;;;4.07;;
42104;SDS011;68365;51.472;5.712;2023-05-10T10:50:03;5.97;;;4.40;;
42104;SDS011;68365;51.472;5.712;2023-05-10T10:52:31;7.57;;;4.05;;
42104;SDS011;68365;51.472;5.712;2023-05-10T10:55:17;7.40;;;5.20;;
42104;SDS011;68365;51.472;5.712;2023-05-10T10:57:48;7.53;;;4.80;;
42104;SDS011;68365;51.472;5.712;2023-05-10T11:00:36;6.18;;;4.15;;
42104;SDS011;68365;51.472;5.712;2023-05-10T11:08:30;8.68;;;4.05;;
42104;SDS011;68365;51.472;5.712;2023-05-10T11:13:41;7.40;;;3.72;;
42104;SDS011;68365;51.472;5.712;2023-05-10T11:16:15;5.78;;;3.78;;
42104;SDS011;68365;51.472;5.712;2023-05-10T11:19:07;5.15;;;3.40;;
42104;SDS011;68365;51.472;5.712;2023-05-10T11:21:50;4.97;;;3.50;;
42104;SDS011;68365;51.472;5.712;2023-05-10T11:24:36;7.93;;;3.40;;
42104;SDS011;68365;51.472;5.712;2023-05-10T11:27:02;5.65;;;3.08;;
42104;SDS011;68365;51.472;5.712;2023-05-10T11:29:28;6.28;;;3.90;;
42104;SDS011;68365;51.472;5.712;2023-05-10T11:31:56;4.40;;;3.55;;
42104;SDS011;68365;51.472;5.712;2023-05-10T11:36:54;6.82;;;3.40;;
42104;SDS011;68365;51.472;5.712;2023-05-10T11:39:28;5.45;;;3.33;;
42104;SDS011;68365;51.472;5.712;2023-05-10T11:41:56;4.43;;;3.60;;
42104;SDS011;68365;51.472;5.712;2023-05-10T11:44:23;7.00;;;3.60;;
42104;SDS011;68365;51.472;5.712;2023-05-10T11:46:57;7.97;;;3.78;;
42104;SDS011;68365;51.472;5.712;2023-05-10T11:49:25;4.78;;;3.05;;
42104;SDS011;68365;51.472;5.712;2023-05-10T11:51:51;4.13;;;3.40;;
42104;SDS011;68365;51.472;5.712;2023-05-10T11:54:17;5.10;;;3.35;;
42104;SDS011;68365;51.472;5.712;2023-05-10T11:56:43;4.43;;;3.17;;
42104;SDS011;68365;51.472;5.712;2023-05-10T11:59:10;9.07;;;3.80;;
42104;SDS011;68365;51.472;5.712;2023-05-10T12:01:39;6.20;;;3.70;;
42104;SDS011;68365;51.472;5.712;2023-05-10T12:04:04;3.75;;;3.20;;
42104;SDS011;68365;51.472;5.712;2023-05-10T12:06:32;4.45;;;3.47;;
42104;SDS011;68365;51.472;5.712;2023-05-10T12:09:05;4.38;;;3.70;;
42104;SDS011;68365;51.472;5.712;2023-05-10T12:11:35;5.03;;;3.53;;
42104;SDS011;68365;51.472;5.712;2023-05-10T12:14:05;4.65;;;3.63;;
42104;SDS011;68365;51.472;5.712;2023-05-10T12:16:31;4.78;;;3.50;;
42104;SDS011;68365;51.472;5.712;2023-05-10T12:18:58;4.28;;;3.40;;
42104;SDS011;68365;51.472;5.712;2023-05-10T12:21:25;10.85;;;6.15;;
42104;SDS011;68365;51.472;5.712;2023-05-10T12:23:54;12.60;;;7.70;;
42104;SDS011;68365;51.472;5.712;2023-05-10T12:26:25;15.30;;;11.20;;
42104;SDS011;68365;51.472;5.712;2023-05-10T12:28:53;14.35;;;11.45;;
42104;SDS011;68365;51.472;5.712;2023-05-10T12:31:19;14.63;;;11.32;;
42104;SDS011;68365;51.472;5.712;2023-05-10T12:33:46;14.63;;;11.98;;
42104;SDS011;68365;51.472;5.712;2023-05-10T12:36:14;16.20;;;11.30;;
42104;SDS011;68365;51.472;5.712;2023-05-10T12:38:44;14.88;;;11.40;;
42104;SDS011;68365;51.472;5.712;2023-05-10T12:41:14;13.73;;;10.25;;
42104;SDS011;68365;51.472;5.712;2023-05-10T12:43:42;13.05;;;9.63;;
42104;SDS011;68365;51.472;5.712;2023-05-10T12:46:12;16.20;;;9.43;;
42104;SDS011;68365;51.472;5.712;2023-05-10T12:48:42;14.05;;;8.45;;
42104;SDS011;68365;51.472;5.712;2023-05-10T12:51:09;9.68;;;8.40;;
42104;SDS011;68365;51.472;5.712;2023-05-10T12:53:41;14.15;;;8.05;;
42104;SDS011;68365;51.472;5.712;2023-05-10T12:56:06;11.70;;;8.23;;
42104;SDS011;68365;51.472;5.712;2023-05-10T12:58:32;11.70;;;8.80;;
42104;SDS011;68365;51.472;5.712;2023-05-10T13:00:59;12.27;;;8.13;;
42104;SDS011;68365;51.472;5.712;2023-05-10T13:03:26;11.40;;;8.70;;
42104;SDS011;68365;51.472;5.712;2023-05-10T13:05:52;9.70;;;8.05;;
42104;SDS011;68365;51.472;5.712;2023-05-10T13:08:18;13.50;;;8.60;;
42104;SDS011;68365;51.472;5.712;2023-05-10T13:10:43;12.93;;;8.43;;
42104;SDS011;68365;51.472;5.712;2023-05-10T13:13:09;11.25;;;8.40;;
42104;SDS011;68365;51.472;5.712;2023-05-10T13:15:35;12.90;;;9.02;;
42104;SDS011;68365;51.472;5.712;2023-05-10T13:18:01;13.75;;;9.10;;
42104;SDS011;68365;51.472;5.712;2023-05-10T13:20:27;13.10;;;9.95;;
42104;SDS011;68365;51.472;5.712;2023-05-10T13:22:53;14.10;;;10.68;;
42104;SDS011;68365;51.472;5.712;2023-05-10T13:25:19;17.65;;;10.75;;
42104;SDS011;68365;51.472;5.712;2023-05-10T13:27:45;14.77;;;10.45;;
42104;SDS011;68365;51.472;5.712;2023-05-10T13:30:10;15.32;;;10.13;;
42104;SDS011;68365;51.472;5.712;2023-05-10T13:32:37;11.75;;;9.63;;
42104;SDS011;68365;51.472;5.712;2023-05-10T13:35:03;12.77;;;9.10;;
42104;SDS011;68365;51.472;5.712;2023-05-10T13:37:30;16.33;;;9.48;;
42104;SDS011;68365;51.472;5.712;2023-05-10T13:39:57;13.65;;;9.05;;
42104;SDS011;68365;51.472;5.712;2023-05-10T13:42:23;12.55;;;8.95;;
42104;SDS011;68365;51.472;5.712;2023-05-10T13:44:49;11.40;;;8.15;;
42104;SDS011;68365;51.472;5.712;2023-05-10T13:47:15;12.25;;;8.20;;
42104;SDS011;68365;51.472;5.712;2023-05-10T13:49:41;10.48;;;7.63;;
42104;SDS011;68365;51.472;5.712;2023-05-10T13:52:07;11.25;;;7.97;;
42104;SDS011;68365;51.472;5.712;2023-05-10T13:54:35;11.15;;;8.55;;
42104;SDS011;68365;51.472;5.712;2023-05-10T13:57:02;13.88;;;7.88;;
42104;SDS011;68365;51.472;5.712;2023-05-10T13:59:29;10.15;;;6.60;;
42104;SDS011;68365;51.472;5.712;2023-05-10T14:01:56;10.57;;;6.60;;
42104;SDS011;68365;51.472;5.712;2023-05-10T14:04:23;8.65;;;5.60;;
42104;SDS011;68365;51.472;5.712;2023-05-10T14:06:49;9.52;;;6.32;;
42104;SDS011;68365;51.472;5.712;2023-05-10T14:09:15;7.82;;;5.63;;
42104;SDS011;68365;51.472;5.712;2023-05-10T14:11:42;9.68;;;5.72;;
42104;SDS011;68365;51.472;5.712;2023-05-10T14:14:11;8.10;;;5.63;;
42104;SDS011;68365;51.472;5.712;2023-05-10T14:16:38;7.43;;;6.05;;
42104;SDS011;68365;51.472;5.712;2023-05-10T14:19:08;10.93;;;5.93;;
42104;SDS011;68365;51.472;5.712;2023-05-10T14:21:34;8.00;;;6.05;;
42104;SDS011;68365;51.472;5.712;2023-05-10T14:24:03;7.28;;;5.75;;
42104;SDS011;68365;51.472;5.712;2023-05-10T14:26:32;8.93;;;5.78;;
42104;SDS011;68365;51.472;5.712;2023-05-10T14:28:59;7.90;;;5.88;;
42104;SDS011;68365;51.472;5.712;2023-05-10T14:31:25;8.38;;;6.72;;
42104;SDS011;68365;51.472;5.712;2023-05-10T14:33:53;10.32;;;8.10;;
42104;SDS011;68365;51.472;5.712;2023-05-10T14:36:19;9.63;;;8.48;;
42104;SDS011;68365;51.472;5.712;2023-05-10T14:38:45;10.65;;;8.32;;
42104;SDS011;68365;51.472;5.712;2023-05-10T14:41:10;9.57;;;6.10;;
42104;SDS011;68365;51.472;5.712;2023-05-10T14:43:52;7.78;;;5.07;;
42104;SDS011;68365;51.472;5.712;2023-05-10T14:46:34;5.80;;;4.60;;
42104;SDS011;68365;51.472;5.712;2023-05-10T14:49:00;6.47;;;4.15;;
42104;SDS011;68365;51.472;5.712;2023-05-10T14:51:26;6.20;;;4.63;;
42104;SDS011;68365;51.472;5.712;2023-05-10T14:53:54;8.75;;;4.55;;
42104;SDS011;68365;51.472;5.712;2023-05-10T14:56:20;6.25;;;4.00;;
42104;SDS011;68365;51.472;5.712;2023-05-10T14:58:47;5.00;;;3.85;;
42104;SDS011;68365;51.472;5.712;2023-05-10T15:01:12;5.28;;;3.70;;
42104;SDS011;68365;51.472;5.712;2023-05-10T15:03:38;4.45;;;3.67;;
42104;SDS011;68365;51.472;5.712;2023-05-10T15:06:04;5.70;;;3.75;;
42104;SDS011;68365;51.472;5.712;2023-05-10T15:08:30;5.00;;;3.47;;
42104;SDS011;68365;51.472;5.712;2023-05-10T15:10:56;6.05;;;3.80;;
42104;SDS011;68365;51.472;5.712;2023-05-10T15:13:22;5.38;;;3.50;;
42104;SDS011;68365;51.472;5.712;2023-05-10T15:15:48;3.97;;;2.92;;
42104;SDS011;68365;51.472;5.712;2023-05-10T15:18:13;7.07;;;3.42;;
42104;SDS011;68365;51.472;5.712;2023-05-10T15:20:39;10.38;;;3.08;;
42104;SDS011;68365;51.472;5.712;2023-05-10T15:23:05;4.10;;;2.90;;